SKBO/BOG METAR and TAF weather

Enter ICAO airport designator
Station Type Date Time Source
SKBO METAR 2019/02/17 16:00 UTC NOAA

SKBO 171600Z 12006KT 9999 FEW023 21/08 A3037


Station Type Date Time Source
SKBO Decoded METAR 2019/02/17 16:00 UTC NOAA

Bogota / Eldorado, Colombia (SKBO) 04-43N 074-09W 2548M
Feb 17, 2019 - 11:00 AM EST / 2019.02.17 1600 UTC
Wind: from the ESE (120 degrees) at 7 MPH (6 KT):0
Visibility: greater than 7 mile(s):0
Sky conditions: mostly clear
Temperature: 69 F (21 C)
Dew Point: 46 F (8 C)
Relative Humidity: 43%
Pressure (altimeter): 30.37 in. Hg (1028 hPa)
ob: SKBO 171600Z 12006KT 9999 FEW023 21/08 A3037
cycle: 16

Station Type Date Time Source
SKBO TAF 2019/02/17 12:45 UTC NOAA

TAF SKBO 171100Z 1712/1812 05006KT 9999 FEW020 SCT090
BECMG 1715/1717 24012KT SCT020 BKN090 PROB40
TEMPO 1719/1722 8000 RADZ SCT015TCU
BECMG 1722/1724 05004KT FEW020 SCT100 TX21/1718Z TN09/1810Z


Example: see airport list